Greenville Spartanburg International Airport Greenville US
ICAO: KGSP
IATA: GSP
Category: Large
Scheduled Services: Yes

Elevation: 964 ft
TransAlt. 18000 ft.

Airport Communications:
GREER APP/DEP:120.6
ATIS:134.25
CTAF:120.1
GREER GND:121.9
GREER TWR:120.1
UNICOM:122.95

KGSP Zoom In..

If you have problems with the map follow the link
https://www.worldairports.se/pages/airport.php?
ICAO=KGSP

Runways:

(A) RW 04 length 11001 ft width 150 ft
ILS 109.30 / hdg 38

(B) RW 22 length 11001 ft width 150 ft
ILS 110.70 / hdg 218

Location; KGSP
Day. 24 / Time. 08.37 Zulu
* Altimeter: 29.63
* Temperature: 12° c. 53.6°f.
* Wind from: 180° Speed 09 kn.
Dewpoint: 12° c.
Visibility: 2 Statute Miles.
Clouds: Overcast 300 ft.
Conditions: Light Rain.Conditions: Mist.

KGSP 240837Z AUTO 18009KT 2SM -RA BR OVC003 12/12 A2963 RMK AO2 P0003 T01170117


Wind From 180°
Speed 09 kn.

 
 
jpsmedia.com for Web Design worldairports.se 2019   terms of use